createdAt,value
2023-04-20T00:02:04.448Z,1.88
2023-04-20T00:04:30.922Z,3.90
2023-04-20T00:06:58.663Z,2.53
2023-04-20T00:09:26.947Z,1.77
2023-04-20T00:11:53.376Z,1.90
2023-04-20T00:14:20.270Z,2.17
2023-04-20T00:16:46.806Z,2.07
2023-04-20T00:19:13.192Z,2.10
2023-04-20T00:21:39.728Z,2.13
2023-04-20T00:24:07.076Z,2.15
2023-04-20T00:26:33.796Z,2.60
2023-04-20T00:29:00.157Z,2.30
2023-04-20T00:31:26.578Z,2.42
2023-04-20T00:33:53.030Z,2.20
2023-04-20T00:36:19.413Z,2.55
2023-04-20T00:38:45.931Z,2.30
2023-04-20T00:41:12.294Z,2.27
2023-04-20T00:43:48.890Z,2.25
2023-04-20T00:46:16.701Z,1.98
2023-04-20T00:48:43.089Z,2.08
2023-04-20T00:51:09.657Z,2.08
2023-04-20T00:53:36.550Z,2.30
2023-04-20T00:56:03.002Z,2.10
2023-04-20T00:58:29.361Z,2.10
2023-04-20T01:00:56.182Z,1.80
2023-04-20T01:03:22.855Z,2.20
2023-04-20T01:05:49.610Z,2.20
2023-04-20T01:08:15.984Z,2.55
2023-04-20T01:10:42.384Z,2.03
2023-04-20T01:13:08.744Z,1.70
2023-04-20T01:15:35.311Z,2.08
2023-04-20T01:18:02.970Z,1.83
2023-04-20T01:20:29.467Z,1.92
2023-04-20T01:22:55.900Z,2.03
2023-04-20T01:25:23.246Z,1.92
2023-04-20T01:27:49.653Z,1.80
2023-04-20T01:30:17.171Z,1.90
2023-04-20T01:32:44.184Z,1.98
2023-04-20T01:35:11.149Z,2.20
2023-04-20T01:37:38.237Z,2.42
2023-04-20T01:40:06.324Z,2.05
2023-04-20T01:42:32.828Z,1.80
2023-04-20T01:44:59.171Z,2.13
2023-04-20T01:47:25.873Z,2.15
2023-04-20T01:49:52.283Z,1.85
2023-04-20T01:52:18.714Z,1.83
2023-04-20T01:54:45.351Z,2.10
2023-04-20T01:57:11.844Z,1.98
2023-04-20T01:59:38.215Z,2.03
2023-04-20T02:02:04.713Z,1.80
2023-04-20T02:04:31.235Z,2.10
2023-04-20T02:06:57.622Z,2.60
2023-04-20T02:09:24.046Z,2.30
2023-04-20T02:11:50.435Z,2.00
2023-04-20T02:14:16.843Z,2.13
2023-04-20T02:16:43.224Z,2.10
2023-04-20T02:19:09.954Z,2.33
2023-04-20T02:21:36.422Z,2.00
2023-04-20T02:24:02.804Z,2.10
2023-04-20T02:26:29.191Z,2.20
2023-04-20T02:28:55.760Z,2.10
2023-04-20T02:31:22.242Z,2.40
2023-04-20T02:33:49.874Z,2.33
2023-04-20T02:36:16.271Z,2.40
2023-04-20T02:38:42.639Z,2.35
2023-04-20T02:41:08.987Z,2.30
2023-04-20T02:43:36.184Z,2.57
2023-04-20T02:46:02.652Z,2.40
2023-04-20T02:48:29.026Z,2.47
2023-04-20T02:50:56.520Z,2.63
2023-04-20T02:53:22.895Z,2.78
2023-04-20T02:55:49.230Z,2.57
2023-04-20T02:58:17.596Z,2.80
2023-04-20T03:00:44.080Z,2.72
2023-04-20T03:03:10.883Z,2.67
2023-04-20T03:05:37.328Z,2.65
2023-04-20T03:08:05.896Z,2.60
2023-04-20T03:10:32.452Z,3.08
2023-04-20T03:12:58.806Z,2.90
2023-04-20T03:15:25.392Z,3.30
2023-04-20T03:17:52.385Z,2.58
2023-04-20T03:20:18.807Z,3.30
2023-04-20T03:22:45.482Z,2.88
2023-04-20T03:25:11.957Z,2.72
2023-04-20T03:27:38.330Z,2.88
2023-04-20T03:30:05.360Z,2.50
2023-04-20T03:32:32.815Z,2.70
2023-04-20T03:34:59.304Z,2.70
2023-04-20T03:37:25.667Z,2.60
2023-04-20T03:39:52.027Z,2.97
2023-04-20T03:42:19.463Z,2.53
2023-04-20T03:44:45.823Z,3.03
2023-04-20T03:47:12.204Z,2.80
2023-04-20T03:49:38.609Z,3.15
2023-04-20T03:52:05.469Z,2.92
2023-04-20T03:54:31.932Z,3.10
2023-04-20T03:56:58.477Z,3.33
2023-04-20T03:59:24.826Z,3.38
2023-04-20T04:01:51.942Z,3.30
2023-04-20T04:04:18.901Z,3.70
2023-04-20T04:06:45.537Z,3.58
2023-04-20T04:09:11.954Z,3.37
2023-04-20T04:11:38.413Z,3.40
2023-04-20T04:14:07.482Z,3.10
2023-04-20T04:16:33.889Z,2.75
2023-04-20T04:19:00.542Z,3.13
2023-04-20T04:21:28.304Z,3.43
2023-04-20T04:23:54.798Z,3.45
2023-04-20T04:26:24.672Z,3.53
2023-04-20T04:28:51.769Z,3.55
2023-04-20T04:31:19.439Z,3.00
2023-04-20T04:33:49.543Z,4.07
2023-04-20T04:36:16.003Z,4.15
2023-04-20T04:38:45.348Z,3.40
2023-04-20T04:41:15.289Z,4.00
2023-04-20T04:43:41.830Z,4.07
2023-04-20T04:46:12.364Z,4.37
2023-04-20T04:48:40.592Z,4.10
2023-04-20T04:51:07.009Z,3.58
2023-04-20T04:53:33.392Z,3.78
2023-04-20T04:55:59.790Z,4.10
2023-04-20T04:58:26.298Z,4.00
2023-04-20T05:00:52.643Z,3.88
2023-04-20T05:03:19.156Z,4.30
2023-04-20T05:05:45.681Z,4.28
2023-04-20T05:08:12.199Z,4.28
2023-04-20T05:10:38.538Z,4.00
2023-04-20T05:13:04.895Z,3.88
2023-04-20T05:15:31.331Z,4.38
2023-04-20T05:17:57.751Z,4.53
2023-04-20T05:20:24.175Z,4.45
2023-04-20T05:22:50.580Z,4.30
2023-04-20T05:25:16.953Z,4.20
2023-04-20T05:27:43.377Z,4.28
2023-04-20T05:30:20.614Z,4.53
2023-04-20T05:32:51.430Z,3.97
2023-04-20T05:35:18.707Z,4.07
2023-04-20T05:37:45.287Z,4.57
2023-04-20T05:40:11.890Z,4.47
2023-04-20T05:42:38.269Z,4.50
2023-04-20T05:45:05.409Z,4.35
2023-04-20T05:47:31.846Z,4.50
2023-04-20T05:49:58.222Z,4.72
2023-04-20T05:52:24.673Z,4.35
2023-04-20T05:54:51.374Z,4.28
2023-04-20T05:57:17.734Z,4.60
2023-04-20T05:59:44.520Z,4.63
2023-04-20T06:02:11.043Z,4.55
2023-04-20T06:04:37.613Z,4.60
2023-04-20T06:07:04.145Z,4.55
2023-04-20T06:09:30.516Z,4.47
2023-04-20T06:11:57.242Z,4.77
2023-04-20T06:14:23.598Z,4.65
2023-04-20T06:16:49.937Z,4.45
2023-04-20T06:19:16.481Z,4.57
2023-04-20T06:21:43.105Z,4.82
2023-04-20T06:24:09.554Z,4.67
2023-04-20T06:26:35.932Z,4.90
2023-04-20T06:29:02.372Z,4.85
2023-04-20T06:31:28.763Z,4.80
2023-04-20T06:33:55.188Z,4.40
2023-04-20T06:36:21.566Z,4.80
2023-04-20T06:38:47.966Z,4.70
2023-04-20T06:41:15.350Z,4.80
2023-04-20T06:43:42.177Z,4.43
2023-04-20T06:46:08.616Z,4.57
2023-04-20T06:48:35.050Z,3.90
2023-04-20T06:51:01.881Z,4.50
2023-04-20T06:53:28.267Z,4.85
2023-04-20T06:55:55.737Z,4.70
2023-04-20T06:58:22.240Z,4.75
2023-04-20T07:00:48.670Z,4.43
2023-04-20T07:03:15.168Z,4.78
2023-04-20T07:05:41.713Z,4.43
2023-04-20T07:08:09.444Z,4.68
2023-04-20T07:10:35.847Z,4.38
2023-04-20T07:13:02.211Z,4.70
2023-04-20T07:15:28.606Z,4.40
2023-04-20T07:17:55.334Z,4.65
2023-04-20T07:20:21.934Z,4.40
2023-04-20T07:22:48.352Z,4.40
2023-04-20T07:25:14.760Z,4.57
2023-04-20T07:27:41.518Z,3.90
2023-04-20T07:30:10.556Z,4.38
2023-04-20T07:32:38.038Z,4.10
2023-04-20T07:35:05.070Z,4.50
2023-04-20T07:37:33.605Z,4.33
2023-04-20T07:40:00.245Z,4.82
2023-04-20T07:42:26.679Z,4.38
2023-04-20T07:44:54.416Z,4.55
2023-04-20T07:47:21.141Z,4.50
2023-04-20T07:49:47.584Z,4.37
2023-04-20T07:52:17.316Z,4.82
2023-04-20T07:54:46.965Z,4.75
2023-04-20T07:57:13.394Z,4.95
2023-04-20T07:59:40.696Z,4.90
2023-04-20T08:02:08.153Z,4.57
2023-04-20T08:04:37.947Z,5.10
2023-04-20T08:07:04.759Z,5.35
2023-04-20T08:09:31.209Z,6.13
2023-04-20T08:11:57.634Z,5.60
2023-04-20T08:14:24.138Z,4.83
2023-04-20T08:16:50.539Z,4.70
2023-04-20T08:19:16.956Z,5.53
2023-04-20T08:21:43.479Z,5.20
2023-04-20T08:24:09.945Z,5.20
2023-04-20T08:26:36.911Z,5.30
2023-04-20T08:29:04.010Z,4.97
2023-04-20T08:31:30.498Z,6.15
2023-04-20T08:33:57.030Z,5.88
2023-04-20T08:36:23.689Z,5.43
2023-04-20T08:39:14.388Z,5.23
2023-04-20T08:41:41.159Z,5.55
2023-04-20T08:44:08.424Z,5.60
2023-04-20T08:46:35.264Z,5.63
2023-04-20T08:49:04.573Z,5.28
2023-04-20T08:51:33.875Z,5.67
2023-04-20T08:54:05.791Z,5.60
2023-04-20T08:56:44.186Z,4.85
2023-04-20T08:59:10.679Z,4.90
2023-04-20T09:01:39.028Z,4.97
2023-04-20T09:04:23.478Z,4.50
2023-04-20T09:06:55.624Z,4.88
2023-04-20T09:09:24.256Z,5.00
2023-04-20T09:12:07.676Z,5.13
2023-04-20T09:14:45.716Z,4.75
2023-04-20T09:17:14.711Z,5.53
2023-04-20T09:19:44.797Z,5.20
2023-04-20T09:22:11.289Z,4.93
2023-04-20T09:24:39.369Z,5.35
2023-04-20T09:27:16.502Z,4.63
2023-04-20T09:29:42.958Z,5.43
2023-04-20T09:32:21.562Z,5.30
2023-04-20T09:34:47.995Z,5.15
2023-04-20T09:37:17.829Z,4.70
2023-04-20T09:39:45.627Z,4.90
2023-04-20T09:42:13.711Z,4.93
2023-04-20T09:44:40.588Z,4.97
2023-04-20T09:47:08.511Z,5.05
2023-04-20T09:49:35.665Z,5.35
2023-04-20T09:52:03.274Z,5.32
2023-04-20T09:54:30.370Z,5.27
2023-04-20T09:56:59.065Z,5.40
2023-04-20T09:59:26.323Z,5.30
2023-04-20T10:01:52.867Z,5.18
2023-04-20T10:04:19.473Z,4.85
2023-04-20T10:06:57.991Z,4.97
2023-04-20T10:09:26.139Z,4.90
2023-04-20T10:11:54.615Z,4.72
2023-04-20T10:14:26.222Z,5.47
2023-04-20T10:17:04.198Z,4.80
2023-04-20T10:19:43.813Z,4.63
2023-04-20T10:22:12.557Z,4.82
2023-04-20T10:24:39.750Z,4.93
2023-04-20T10:27:22.328Z,4.63
2023-04-20T10:29:49.075Z,4.28
2023-04-20T10:32:26.798Z,4.60
2023-04-20T10:35:05.091Z,4.60
2023-04-20T10:37:32.355Z,4.90
2023-04-20T10:39:59.049Z,4.07
2023-04-20T10:42:26.556Z,4.65
2023-04-20T10:44:54.398Z,4.13
2023-04-20T10:47:31.447Z,4.72
2023-04-20T10:50:09.206Z,4.93
2023-04-20T10:52:38.481Z,4.50
2023-04-20T10:55:06.947Z,4.53
2023-04-20T10:57:33.819Z,4.30
2023-04-20T11:00:00.326Z,4.15
2023-04-20T11:02:28.092Z,3.92
2023-04-20T11:05:00.800Z,4.78
2023-04-20T11:07:27.286Z,4.47
2023-04-20T11:09:55.806Z,4.73
2023-04-20T11:12:22.172Z,4.45
2023-04-20T11:14:55.153Z,4.65
2023-04-20T11:17:35.038Z,4.57
2023-04-20T11:20:08.994Z,4.20
2023-04-20T11:22:35.399Z,4.47
2023-04-20T11:25:06.284Z,4.32
2023-04-20T11:27:33.835Z,4.40
2023-04-20T11:30:04.293Z,4.50
2023-04-20T11:32:31.369Z,4.47
2023-04-20T11:35:06.405Z,4.00
2023-04-20T11:37:45.742Z,4.40
2023-04-20T11:40:13.281Z,4.65
2023-04-20T11:42:39.630Z,4.40
2023-04-20T11:45:06.807Z,3.80
2023-04-20T11:47:33.213Z,3.80
2023-04-20T11:49:59.588Z,4.13
2023-04-20T11:52:25.966Z,4.00
2023-04-20T11:54:52.355Z,4.10
2023-04-20T11:57:18.805Z,4.00
2023-04-20T11:59:48.003Z,3.80
2023-04-20T12:02:15.283Z,4.00
2023-04-20T12:04:42.088Z,4.25
2023-04-20T12:07:08.772Z,4.28
2023-04-20T12:09:37.218Z,4.30
2023-04-20T12:12:08.569Z,4.00
2023-04-20T12:14:34.939Z,4.28
2023-04-20T12:17:02.224Z,4.30
2023-04-20T12:19:28.571Z,4.18
2023-04-20T12:21:55.480Z,4.43
2023-04-20T12:24:22.371Z,3.90
2023-04-20T12:26:48.948Z,2.70
2023-04-20T12:29:16.616Z,3.00
2023-04-20T12:31:43.279Z,2.95
2023-04-20T12:34:09.685Z,3.30
2023-04-20T12:36:36.560Z,3.23
2023-04-20T12:39:03.603Z,3.67
2023-04-20T12:41:30.154Z,3.90
2023-04-20T12:43:56.509Z,3.90
2023-04-20T12:46:22.949Z,4.40
2023-04-20T12:48:49.375Z,3.97
2023-04-20T12:51:15.759Z,4.45
2023-04-20T12:53:42.155Z,5.03
2023-04-20T12:56:08.549Z,4.80
2023-04-20T12:58:34.912Z,4.60
2023-04-20T13:01:01.354Z,4.70
2023-04-20T13:03:28.116Z,4.70
2023-04-20T13:05:54.650Z,4.40
2023-04-20T13:08:21.593Z,4.47
2023-04-20T13:10:48.010Z,4.35
2023-04-20T13:13:14.395Z,4.00
2023-04-20T13:15:40.843Z,4.25
2023-04-20T13:18:07.477Z,4.45
2023-04-20T13:20:33.903Z,3.60
2023-04-20T13:23:01.481Z,3.45
2023-04-20T13:25:29.835Z,3.73
2023-04-20T13:27:56.789Z,3.33
2023-04-20T13:30:24.747Z,3.20
2023-04-20T13:32:51.431Z,3.53
2023-04-20T13:35:18.593Z,3.40
2023-04-20T13:37:45.369Z,3.30
2023-04-20T13:40:12.006Z,3.30
2023-04-20T13:42:38.411Z,3.78
2023-04-20T13:45:05.600Z,3.90
2023-04-20T13:47:32.327Z,3.47
2023-04-20T13:49:58.810Z,3.27
2023-04-20T13:52:25.256Z,3.55
2023-04-20T13:54:51.638Z,3.20
2023-04-20T13:57:17.975Z,3.13
2023-04-20T13:59:44.332Z,3.20
2023-04-20T14:02:10.920Z,2.90
2023-04-20T14:04:37.388Z,3.20
2023-04-20T14:07:03.787Z,2.90
2023-04-20T14:09:31.238Z,2.90
2023-04-20T14:11:57.850Z,3.30
2023-04-20T14:14:24.937Z,2.90
2023-04-20T14:16:51.412Z,2.90
2023-04-20T14:19:17.821Z,3.30
2023-04-20T14:21:46.603Z,2.75
2023-04-20T14:24:13.792Z,3.00
2023-04-20T14:26:40.982Z,3.07
2023-04-20T14:29:07.413Z,3.42
2023-04-20T14:31:34.860Z,3.65
2023-04-20T14:34:01.733Z,3.20
2023-04-20T14:36:28.150Z,2.63
2023-04-20T14:38:55.566Z,2.97
2023-04-20T14:41:22.194Z,3.20
2023-04-20T14:43:48.596Z,3.25
2023-04-20T14:46:15.030Z,3.40
2023-04-20T14:48:41.432Z,3.53
2023-04-20T14:51:07.772Z,3.70
2023-04-20T14:53:34.191Z,3.90
2023-04-20T14:56:00.584Z,3.67
2023-04-20T14:58:26.992Z,3.72
2023-04-20T15:00:54.149Z,3.75
2023-04-20T15:03:20.839Z,3.27
2023-04-20T15:05:47.610Z,3.03
2023-04-20T15:08:14.314Z,3.47
2023-04-20T15:10:40.885Z,3.60
2023-04-20T15:13:07.548Z,3.08
2023-04-20T15:15:47.587Z,3.70
2023-04-20T15:18:15.802Z,3.75
2023-04-20T15:20:42.181Z,3.83
2023-04-20T15:23:08.631Z,3.28
2023-04-20T15:25:35.086Z,3.40
2023-04-20T15:28:01.637Z,3.37
2023-04-20T15:30:30.206Z,3.17
2023-04-20T15:33:04.381Z,2.88
2023-04-20T15:35:31.948Z,3.40
2023-04-20T15:37:58.341Z,3.28
2023-04-20T15:40:24.801Z,3.57
2023-04-20T15:42:51.509Z,3.40
2023-04-20T15:45:17.968Z,3.00
2023-04-20T15:47:45.811Z,3.45
2023-04-20T15:50:12.289Z,3.53
2023-04-20T15:52:38.726Z,3.57
2023-04-20T15:55:05.646Z,3.47
2023-04-20T15:57:32.021Z,3.60
2023-04-20T15:59:58.431Z,3.50
2023-04-20T16:02:24.988Z,3.75
2023-04-20T16:04:51.816Z,3.90
2023-04-20T16:07:18.289Z,3.50
2023-04-20T16:09:44.640Z,3.70
2023-04-20T16:12:11.054Z,3.78
2023-04-20T16:14:37.410Z,3.88
2023-04-20T16:17:03.786Z,3.97
2023-04-20T16:19:30.861Z,4.03
2023-04-20T16:21:57.752Z,4.40
2023-04-20T16:24:24.120Z,4.45
2023-04-20T16:26:50.880Z,4.85
2023-04-20T16:29:17.259Z,4.87
2023-04-20T16:31:43.701Z,5.10
2023-04-20T16:34:10.203Z,4.60
2023-04-20T16:36:36.728Z,4.88
2023-04-20T16:39:05.754Z,4.68
2023-04-20T16:41:32.369Z,5.03
2023-04-20T16:43:58.749Z,4.75
2023-04-20T16:46:25.227Z,5.00
2023-04-20T16:48:51.928Z,5.13
2023-04-20T16:51:18.320Z,4.85
2023-04-20T16:53:45.298Z,5.13
2023-04-20T16:56:12.223Z,4.60
2023-04-20T16:58:38.634Z,5.32
2023-04-20T17:01:05.246Z,5.05
2023-04-20T17:03:32.006Z,5.43
2023-04-20T17:05:58.632Z,5.80
2023-04-20T17:08:26.410Z,5.03
2023-04-20T17:10:52.764Z,5.40
2023-04-20T17:13:19.122Z,5.38
2023-04-20T17:15:46.237Z,4.93
2023-04-20T17:18:12.596Z,5.00
2023-04-20T17:20:38.970Z,5.32
2023-04-20T17:23:05.367Z,5.32
2023-04-20T17:25:31.864Z,5.65
2023-04-20T17:27:58.302Z,5.57
2023-04-20T17:30:24.687Z,6.00
2023-04-20T17:32:52.868Z,5.78
2023-04-20T17:35:19.394Z,5.72
2023-04-20T17:37:45.830Z,5.50
2023-04-20T17:40:12.435Z,5.78
2023-04-20T17:42:38.792Z,5.40
2023-04-20T17:45:06.345Z,5.78
2023-04-20T17:47:32.843Z,6.28
2023-04-20T17:49:59.820Z,6.35
2023-04-20T17:52:26.776Z,6.38
2023-04-20T17:54:59.908Z,6.37
2023-04-20T17:57:26.357Z,5.93
2023-04-20T17:59:52.705Z,6.90
2023-04-20T18:02:19.193Z,7.05
2023-04-20T18:04:46.064Z,7.20
2023-04-20T18:07:16.829Z,6.77
2023-04-20T18:09:43.401Z,6.93
2023-04-20T18:12:12.885Z,7.78
2023-04-20T18:14:40.538Z,7.85
2023-04-20T18:17:07.109Z,7.43
2023-04-20T18:19:33.572Z,7.60
2023-04-20T18:22:00.484Z,8.15
2023-04-20T18:24:26.994Z,7.95
2023-04-20T18:26:53.372Z,8.45
2023-04-20T18:29:19.814Z,8.65
2023-04-20T18:31:46.490Z,8.20
2023-04-20T18:34:14.948Z,8.32
2023-04-20T18:36:41.604Z,8.60
2023-04-20T18:39:11.063Z,9.00
2023-04-20T18:41:37.484Z,9.25
2023-04-20T18:44:04.278Z,8.80
2023-04-20T18:46:30.672Z,8.35
2023-04-20T18:48:57.571Z,9.18
2023-04-20T18:51:23.953Z,8.90
2023-04-20T18:53:50.294Z,9.13
2023-04-20T18:56:16.685Z,9.97
2023-04-20T18:58:43.096Z,9.50
2023-04-20T19:01:09.504Z,10.38
2023-04-20T19:03:35.994Z,10.38
2023-04-20T19:06:02.502Z,10.57
2023-04-20T19:08:28.897Z,11.10
2023-04-20T19:10:57.199Z,11.60
2023-04-20T19:13:23.792Z,11.05
2023-04-20T19:15:54.944Z,11.52
2023-04-20T19:18:21.506Z,11.75
2023-04-20T19:20:47.873Z,11.73
2023-04-20T19:23:14.219Z,11.90
2023-04-20T19:25:40.595Z,12.20
2023-04-20T19:28:08.229Z,11.20
2023-04-20T19:30:35.662Z,10.70
2023-04-20T19:33:04.766Z,10.97
2023-04-20T19:35:32.187Z,10.45
2023-04-20T19:37:59.666Z,8.57
2023-04-20T19:40:26.919Z,9.27
2023-04-20T19:42:53.296Z,9.55
2023-04-20T19:45:19.761Z,8.87
2023-04-20T19:47:46.315Z,8.98
2023-04-20T19:50:13.905Z,9.10
2023-04-20T19:52:40.307Z,9.35
2023-04-20T19:55:07.043Z,9.35
2023-04-20T19:57:33.448Z,9.73
2023-04-20T19:59:59.801Z,8.48
2023-04-20T20:02:26.292Z,9.15
2023-04-20T20:04:54.193Z,8.68
2023-04-20T20:07:20.717Z,8.60
2023-04-20T20:09:47.084Z,9.10
2023-04-20T20:12:13.538Z,8.73
2023-04-20T20:14:39.946Z,8.90
2023-04-20T20:17:06.812Z,9.63
2023-04-20T20:19:33.293Z,8.90
2023-04-20T20:22:00.198Z,9.23
2023-04-20T20:24:26.718Z,9.50
2023-04-20T20:26:53.065Z,9.18
2023-04-20T20:29:19.632Z,9.07
2023-04-20T20:31:46.344Z,8.88
2023-04-20T20:34:12.731Z,9.13
2023-04-20T20:36:42.426Z,8.27
2023-04-20T20:39:09.169Z,8.73
2023-04-20T20:41:35.757Z,8.82
2023-04-20T20:44:02.328Z,8.77
2023-04-20T20:46:31.440Z,8.73
2023-04-20T20:48:59.560Z,7.60
2023-04-20T20:51:27.201Z,8.32
2023-04-20T20:53:53.562Z,9.20
2023-04-20T20:56:20.136Z,8.65
2023-04-20T20:58:46.784Z,8.63
2023-04-20T21:01:13.214Z,7.97
2023-04-20T21:03:39.983Z,8.43
2023-04-20T21:06:06.513Z,7.75
2023-04-20T21:08:32.944Z,7.65
2023-04-20T21:10:59.305Z,7.97
2023-04-20T21:13:25.669Z,8.23
2023-04-20T21:15:52.068Z,7.70
2023-04-20T21:18:18.737Z,7.10
2023-04-20T21:20:45.138Z,7.82
2023-04-20T21:23:11.771Z,7.90
2023-04-20T21:25:38.225Z,7.68
2023-04-20T21:28:04.793Z,7.32
2023-04-20T21:30:31.150Z,6.85
2023-04-20T21:32:57.629Z,7.13
2023-04-20T21:35:24.197Z,7.40
2023-04-20T21:37:50.681Z,7.35
2023-04-20T21:40:17.126Z,7.72
2023-04-20T21:42:43.489Z,7.70
2023-04-20T21:45:10.238Z,7.80
2023-04-20T21:47:36.671Z,7.63
2023-04-20T21:50:03.304Z,7.65
2023-04-20T21:52:29.674Z,8.20
2023-04-20T21:54:56.027Z,7.93
2023-04-20T21:57:22.551Z,8.50
2023-04-20T21:59:48.900Z,8.90
2023-04-20T22:02:15.330Z,8.45
2023-04-20T22:04:41.840Z,8.52
2023-04-20T22:07:09.792Z,8.38
2023-04-20T22:09:36.190Z,8.57
2023-04-20T22:12:03.149Z,8.70
2023-04-20T22:14:29.497Z,8.77
2023-04-20T22:16:55.885Z,8.38
2023-04-20T22:19:22.481Z,9.15
2023-04-20T22:21:48.836Z,9.38
2023-04-20T22:24:15.247Z,8.93
2023-04-20T22:26:42.175Z,9.65
2023-04-20T22:29:08.581Z,9.18
2023-04-20T22:31:34.997Z,9.73
2023-04-20T22:34:01.385Z,9.27
2023-04-20T22:36:28.082Z,10.07
2023-04-20T22:38:54.530Z,9.38
2023-04-20T22:41:21.016Z,9.68
2023-04-20T22:43:47.365Z,9.77
2023-04-20T22:46:13.754Z,10.18
2023-04-20T22:48:41.597Z,9.87
2023-04-20T22:51:07.972Z,11.00
2023-04-20T22:53:34.375Z,10.98
2023-04-20T22:56:05.497Z,10.88
2023-04-20T22:58:32.014Z,11.02
2023-04-20T23:00:58.974Z,10.70
2023-04-20T23:03:26.354Z,10.82
2023-04-20T23:05:53.671Z,11.88
2023-04-20T23:08:23.510Z,11.95
2023-04-20T23:10:50.760Z,11.70
2023-04-20T23:13:17.193Z,12.13
2023-04-20T23:15:43.559Z,11.93
2023-04-20T23:18:10.050Z,11.75
2023-04-20T23:20:39.267Z,12.70
2023-04-20T23:23:07.415Z,11.52
2023-04-20T23:25:34.145Z,12.37
2023-04-20T23:28:00.505Z,11.82
2023-04-20T23:30:26.916Z,11.57
2023-04-20T23:32:53.339Z,11.32
2023-04-20T23:35:20.260Z,11.90
2023-04-20T23:37:46.619Z,11.57
2023-04-20T23:40:13.229Z,11.65
2023-04-20T23:42:39.664Z,12.05
2023-04-20T23:45:06.777Z,11.85
2023-04-20T23:47:33.246Z,11.15
2023-04-20T23:49:59.644Z,11.67
2023-04-20T23:52:26.072Z,11.48
2023-04-20T23:54:52.426Z,10.75
2023-04-20T23:57:18.784Z,11.05
2023-04-20T23:59:45.195Z,12.23
